createdAt,value
2022-12-23T00:02:38.625Z,35.80
2022-12-23T00:05:41.409Z,34.25
2022-12-23T00:08:44.110Z,34.88
2022-12-23T00:12:05.644Z,34.25
2022-12-23T00:15:09.227Z,34.50
2022-12-23T00:18:11.841Z,33.95
2022-12-23T00:21:16.358Z,33.10
2022-12-23T00:24:19.121Z,33.50
2022-12-23T00:27:21.344Z,33.67
2022-12-23T00:30:24.374Z,33.03
2022-12-23T00:33:32.370Z,33.90
2022-12-23T00:36:35.063Z,34.47
2022-12-23T00:39:59.875Z,35.70
2022-12-23T00:43:05.180Z,34.67
2022-12-23T00:46:07.505Z,34.92
2022-12-23T00:49:34.113Z,34.83
2022-12-23T00:52:36.771Z,34.15
2022-12-23T00:55:39.247Z,35.70
2022-12-23T00:58:41.545Z,35.60
2022-12-23T01:02:03.046Z,36.75
2022-12-23T01:08:26.628Z,36.15
2022-12-23T01:11:28.811Z,37.33
2022-12-23T01:14:31.469Z,35.97
2022-12-23T01:17:33.956Z,36.30
2022-12-23T01:20:40.395Z,35.05
2022-12-23T01:23:42.622Z,35.90
2022-12-23T01:26:45.355Z,34.92
2022-12-23T01:29:47.497Z,35.35
2022-12-23T01:32:50.073Z,36.88
2022-12-23T01:35:52.269Z,34.83
2022-12-23T01:38:56.915Z,34.15
2022-12-23T01:42:18.773Z,35.38
2022-12-23T01:45:28.994Z,35.05
2022-12-23T01:48:31.195Z,35.50
2022-12-23T01:51:33.849Z,34.33
2022-12-23T01:54:37.087Z,35.15
2022-12-23T01:57:42.548Z,37.33
2022-12-23T02:01:03.932Z,39.17
2022-12-23T02:04:11.059Z,39.42
2022-12-23T02:07:32.628Z,39.15
2022-12-23T02:11:10.227Z,38.38
2022-12-23T02:14:47.871Z,41.20
2022-12-23T02:17:53.050Z,40.38
2022-12-23T02:21:24.296Z,44.22
2022-12-23T02:25:04.669Z,44.30
2022-12-23T02:28:15.722Z,44.65
2022-12-23T02:31:30.600Z,46.65
2022-12-23T02:34:35.643Z,46.55
2022-12-23T02:37:57.943Z,46.00
2022-12-23T02:41:16.306Z,48.58
2022-12-23T02:44:32.603Z,46.53
2022-12-23T02:47:43.487Z,47.97
2022-12-23T02:53:57.460Z,52.05
2022-12-23T02:57:03.613Z,51.20
2022-12-23T03:00:26.221Z,54.45
2022-12-23T03:03:29.479Z,52.60
2022-12-23T03:06:39.395Z,53.38
2022-12-23T03:10:20.534Z,51.10
2022-12-23T03:13:41.257Z,48.17
2022-12-23T03:17:21.598Z,47.70
2022-12-23T03:20:42.416Z,48.20
2022-12-23T03:27:06.632Z,48.15
2022-12-23T03:30:14.132Z,49.80
2022-12-23T03:33:44.807Z,47.10
2022-12-23T03:36:55.790Z,50.00
2022-12-23T03:40:09.346Z,51.33
2022-12-23T03:43:20.569Z,51.37
2022-12-23T03:46:36.585Z,54.22
2022-12-23T03:49:45.610Z,50.85
2022-12-23T03:53:00.516Z,53.15
2022-12-23T03:56:08.039Z,51.47
2022-12-23T03:59:27.088Z,54.78
2022-12-23T04:02:57.683Z,49.85
2022-12-23T04:06:04.519Z,53.03
2022-12-23T04:09:07.886Z,53.50
2022-12-23T04:12:10.765Z,53.00
2022-12-23T04:15:15.361Z,53.08
2022-12-23T04:18:18.101Z,55.42
2022-12-23T04:21:20.419Z,53.45
2022-12-23T04:24:23.757Z,54.72
2022-12-23T04:27:26.073Z,54.08
2022-12-23T04:30:33.921Z,54.90
2022-12-23T04:33:37.021Z,53.05
2022-12-23T04:36:39.730Z,47.95
2022-12-23T04:39:42.017Z,51.25
2022-12-23T04:42:44.570Z,58.17
2022-12-23T04:45:50.720Z,46.20
2022-12-23T04:48:53.485Z,49.75
2022-12-23T04:51:55.798Z,46.15
2022-12-23T04:54:58.665Z,45.60
2022-12-23T04:58:01.099Z,45.58
2022-12-23T05:01:08.220Z,47.45
2022-12-23T05:04:10.608Z,41.35
2022-12-23T05:07:13.314Z,40.55
2022-12-23T05:10:15.757Z,44.72
2022-12-23T05:13:18.412Z,42.78
2022-12-23T05:16:20.975Z,37.97
2022-12-23T05:19:23.775Z,36.60
2022-12-23T05:22:26.226Z,36.90
2022-12-23T05:25:28.965Z,33.22
2022-12-23T05:28:31.816Z,36.53
2022-12-23T05:31:34.642Z,32.38
2022-12-23T05:34:39.211Z,33.33
2022-12-23T05:37:41.828Z,38.25
2022-12-23T05:40:44.093Z,33.25
2022-12-23T05:43:46.771Z,33.55
2022-12-23T05:46:49.134Z,33.63
2022-12-23T05:49:51.848Z,34.35
2022-12-23T05:52:56.013Z,33.20
2022-12-23T05:55:58.511Z,32.90
2022-12-23T05:59:00.768Z,32.70
2022-12-23T06:02:03.533Z,34.40
2022-12-23T06:05:06.981Z,32.17
2022-12-23T06:08:09.466Z,33.65
2022-12-23T06:11:12.928Z,31.67
2022-12-23T06:14:15.297Z,31.37
2022-12-23T06:17:18.251Z,34.47
2022-12-23T06:20:21.182Z,30.83
2022-12-23T06:23:24.070Z,30.17
2022-12-23T06:26:26.559Z,29.73
2022-12-23T06:29:29.733Z,29.00
2022-12-23T06:32:37.959Z,30.08
2022-12-23T06:35:41.288Z,27.40
2022-12-23T06:38:44.597Z,30.80
2022-12-23T06:41:47.156Z,32.30
2022-12-23T06:44:49.452Z,30.75
2022-12-23T06:47:52.320Z,27.58
2022-12-23T06:50:54.617Z,27.30
2022-12-23T06:53:59.541Z,27.02
2022-12-23T06:57:01.838Z,25.15
2022-12-23T07:00:06.438Z,26.80
2022-12-23T07:03:08.949Z,26.67
2022-12-23T07:06:11.786Z,25.92
2022-12-23T07:09:14.020Z,28.73
2022-12-23T07:12:16.730Z,33.92
2022-12-23T07:15:19.138Z,38.08
2022-12-23T07:18:23.180Z,41.47
2022-12-23T07:21:29.598Z,37.55
2022-12-23T07:24:32.845Z,30.58
2022-12-23T07:27:35.512Z,46.17
2022-12-23T07:30:38.527Z,43.97
2022-12-23T07:33:40.821Z,33.67
2022-12-23T07:36:43.409Z,39.30
2022-12-23T07:39:45.614Z,40.55
2022-12-23T07:42:49.888Z,36.15
2022-12-23T07:45:59.271Z,36.92
2022-12-23T07:49:02.893Z,36.65
2022-12-23T07:52:05.218Z,38.65
2022-12-23T07:55:08.632Z,34.63
2022-12-23T07:58:11.018Z,36.10
2022-12-23T08:01:13.970Z,32.42
2022-12-23T08:04:17.557Z,33.10
2022-12-23T08:07:20.208Z,27.33
2022-12-23T08:10:22.869Z,27.17
2022-12-23T08:13:25.623Z,25.95
2022-12-23T08:16:28.237Z,28.33
2022-12-23T08:19:30.532Z,27.77
2022-12-23T08:22:33.420Z,27.55
2022-12-23T08:25:35.825Z,28.08
2022-12-23T08:28:40.501Z,27.80
2022-12-23T08:31:42.861Z,28.60
2022-12-23T08:34:45.545Z,28.20
2022-12-23T08:37:47.954Z,30.20
2022-12-23T08:40:51.051Z,30.35
2022-12-23T08:43:53.699Z,30.00
2022-12-23T08:46:57.031Z,31.45
2022-12-23T08:49:59.383Z,31.12
2022-12-23T08:53:02.506Z,33.13
2022-12-23T08:56:11.125Z,32.95
2022-12-23T08:59:19.242Z,32.95
2022-12-23T09:02:22.199Z,35.35
2022-12-23T09:05:25.713Z,36.75
2022-12-23T09:08:27.964Z,35.70
2022-12-23T09:11:31.030Z,37.50
2022-12-23T09:14:33.651Z,36.45
2022-12-23T09:17:36.536Z,36.95
2022-12-23T09:20:39.156Z,36.80
2022-12-23T09:23:42.219Z,38.17
2022-12-23T09:26:44.710Z,36.95
2022-12-23T09:29:47.378Z,38.13
2022-12-23T09:32:50.062Z,37.00
2022-12-23T09:35:52.772Z,38.40
2022-12-23T09:38:55.929Z,36.97
2022-12-23T09:42:28.308Z,37.60
2022-12-23T09:46:16.952Z,36.20
2022-12-23T09:49:22.314Z,34.58
2022-12-23T09:53:05.236Z,34.95
2022-12-23T09:56:24.338Z,32.58
2022-12-23T09:59:54.266Z,33.90
2022-12-23T10:03:00.841Z,33.83
2022-12-23T10:06:22.010Z,33.08
2022-12-23T10:09:24.624Z,31.77
2022-12-23T10:12:49.229Z,31.52
2022-12-23T10:15:53.189Z,30.50
2022-12-23T10:18:58.757Z,31.23
2022-12-23T10:22:10.245Z,30.60
2022-12-23T10:25:20.501Z,31.37
2022-12-23T10:28:23.289Z,30.58
2022-12-23T10:31:54.331Z,32.88
2022-12-23T10:35:17.716Z,31.85
2022-12-23T10:38:37.548Z,33.00
2022-12-23T10:41:55.606Z,33.17
2022-12-23T10:45:16.792Z,33.45
2022-12-23T10:48:22.248Z,33.70
2022-12-23T10:51:49.103Z,35.35
2022-12-23T10:54:51.596Z,34.53
2022-12-23T10:57:59.860Z,34.40
2022-12-23T11:01:15.009Z,34.65
2022-12-23T11:04:32.688Z,36.30
2022-12-23T11:07:44.778Z,35.80
2022-12-23T11:10:49.006Z,36.72
2022-12-23T11:13:51.166Z,34.88
2022-12-23T11:16:53.777Z,35.88
2022-12-23T11:20:17.666Z,34.50
2022-12-23T11:23:26.647Z,36.75
2022-12-23T11:26:28.956Z,36.45
2022-12-23T11:29:38.822Z,39.33
2022-12-23T11:32:42.733Z,36.33
2022-12-23T11:35:45.851Z,37.13
2022-12-23T11:38:54.352Z,36.95
2022-12-23T11:42:17.941Z,36.15
2022-12-23T11:45:30.438Z,35.38
2022-12-23T11:48:33.788Z,34.70
2022-12-23T11:51:36.311Z,34.65
2022-12-23T11:54:39.699Z,36.58
2022-12-23T11:57:46.256Z,36.50
2022-12-23T12:00:56.137Z,35.70
2022-12-23T12:04:03.302Z,35.00
2022-12-23T12:07:06.845Z,35.83
2022-12-23T12:10:18.250Z,35.88
2022-12-23T12:13:32.331Z,37.13
2022-12-23T12:16:50.116Z,36.90
2022-12-23T12:20:11.288Z,34.92
2022-12-23T12:23:21.135Z,35.75
2022-12-23T12:26:30.071Z,35.67
2022-12-23T12:29:55.217Z,36.95
2022-12-23T12:33:07.077Z,37.88
2022-12-23T12:36:22.850Z,37.80
2022-12-23T12:39:38.031Z,36.95
2022-12-23T12:42:52.393Z,35.85
2022-12-23T12:46:28.538Z,35.05
2022-12-23T12:49:41.859Z,37.40
2022-12-23T12:52:44.610Z,36.85
2022-12-23T12:55:59.272Z,38.45
2022-12-23T12:59:01.593Z,37.38
2022-12-23T13:02:39.548Z,38.33
2022-12-23T13:06:16.111Z,38.30
2022-12-23T13:09:56.607Z,39.30
2022-12-23T13:13:14.025Z,35.60
2022-12-23T13:16:41.035Z,36.83
2022-12-23T13:20:16.310Z,37.13
2022-12-23T13:23:45.567Z,36.25
2022-12-23T13:27:18.513Z,38.15
2022-12-23T13:30:23.875Z,34.58
2022-12-23T13:33:36.991Z,36.78
2022-12-23T13:36:52.434Z,35.83
2022-12-23T13:40:39.941Z,37.90
2022-12-23T13:43:47.601Z,36.05
2022-12-23T13:47:14.171Z,37.25
2022-12-23T13:50:40.765Z,39.35
2022-12-23T13:53:58.031Z,37.67
2022-12-23T13:57:44.513Z,40.05
2022-12-23T14:00:47.079Z,37.45
2022-12-23T14:03:50.814Z,38.08
2022-12-23T14:06:58.938Z,38.13
2022-12-23T14:10:19.595Z,37.78
2022-12-23T14:18:15.135Z,37.92
2022-12-23T14:21:36.577Z,39.63
2022-12-23T14:25:07.064Z,42.30
2022-12-23T14:28:39.331Z,41.08
2022-12-23T14:31:47.838Z,37.67
2022-12-23T14:35:24.401Z,41.65
2022-12-23T14:38:29.904Z,40.00
2022-12-23T14:41:41.441Z,44.28
2022-12-23T14:44:46.979Z,41.90
2022-12-23T14:47:49.313Z,43.25
2022-12-23T14:50:59.281Z,43.75
2022-12-23T14:54:02.008Z,45.55
2022-12-23T14:57:17.421Z,43.33
2022-12-23T15:00:20.028Z,42.97
2022-12-23T15:03:22.734Z,44.30
2022-12-23T15:06:35.196Z,43.72
2022-12-23T15:09:47.913Z,42.75
2022-12-23T15:12:55.321Z,43.55
2022-12-23T15:16:02.732Z,44.67
2022-12-23T15:19:18.946Z,43.90
2022-12-23T15:22:30.368Z,43.83
2022-12-23T15:25:40.091Z,45.08
2022-12-23T15:28:44.124Z,44.63
2022-12-23T15:31:52.944Z,42.97
2022-12-23T15:35:05.029Z,43.38
2022-12-23T15:38:07.490Z,44.63
2022-12-23T15:41:18.742Z,45.55
2022-12-23T15:44:25.434Z,44.65
2022-12-23T15:47:30.045Z,46.20
2022-12-23T15:50:42.276Z,44.05
2022-12-23T15:53:51.385Z,45.22
2022-12-23T15:56:56.442Z,43.38
2022-12-23T16:00:02.078Z,42.40
2022-12-23T16:03:26.150Z,42.40
2022-12-23T16:06:35.480Z,45.75
2022-12-23T16:09:38.101Z,41.05
2022-12-23T16:12:43.226Z,41.37
2022-12-23T16:15:46.091Z,41.83
2022-12-23T16:18:48.838Z,42.20
2022-12-23T16:21:51.680Z,42.15
2022-12-23T16:25:06.642Z,43.08
2022-12-23T16:28:14.865Z,41.60
2022-12-23T16:31:20.230Z,42.28
2022-12-23T16:34:22.924Z,42.00
2022-12-23T16:37:26.103Z,41.40
2022-12-23T16:40:28.626Z,42.00
2022-12-23T16:43:31.700Z,42.80
2022-12-23T16:46:37.845Z,43.10
2022-12-23T16:49:40.918Z,41.67
2022-12-23T16:52:43.281Z,43.20
2022-12-23T16:55:52.516Z,40.70
2022-12-23T16:58:59.333Z,40.85
2022-12-23T17:02:03.953Z,40.88
2022-12-23T17:05:07.942Z,40.47
2022-12-23T17:08:11.902Z,41.35
2022-12-23T17:11:19.886Z,42.13
2022-12-23T17:14:25.178Z,38.60
2022-12-23T17:17:27.757Z,39.70
2022-12-23T17:20:31.209Z,39.45
2022-12-23T17:23:33.481Z,38.58
2022-12-23T17:26:36.243Z,40.03
2022-12-23T17:29:39.260Z,39.17
2022-12-23T17:32:42.295Z,38.85
2022-12-23T17:35:46.752Z,40.08
2022-12-23T17:38:49.867Z,36.92
2022-12-23T17:41:52.336Z,38.60
2022-12-23T17:44:55.495Z,37.85
2022-12-23T17:47:57.897Z,39.42
2022-12-23T17:51:01.148Z,39.30
2022-12-23T17:54:04.638Z,41.40
2022-12-23T17:57:21.015Z,43.30
2022-12-23T18:00:31.659Z,45.22
2022-12-23T18:03:36.930Z,45.80
2022-12-23T18:06:39.478Z,47.28
2022-12-23T18:09:45.961Z,48.92
2022-12-23T18:12:52.206Z,45.67
2022-12-23T18:15:55.419Z,47.35
2022-12-23T18:18:58.414Z,47.17
2022-12-23T18:22:02.174Z,46.05
2022-12-23T18:25:04.945Z,47.80
2022-12-23T18:28:09.506Z,48.58
2022-12-23T18:31:18.405Z,48.50
2022-12-23T18:34:21.762Z,44.45
2022-12-23T18:37:24.699Z,41.47
2022-12-23T18:40:32.689Z,41.70
2022-12-23T18:43:35.611Z,39.88
2022-12-23T18:46:38.529Z,45.75
2022-12-23T18:49:41.584Z,44.30
2022-12-23T18:52:46.681Z,40.12
2022-12-23T18:55:49.395Z,43.67
2022-12-23T18:58:52.475Z,40.30
2022-12-23T19:01:56.300Z,45.05
2022-12-23T19:04:59.210Z,42.00
2022-12-23T19:08:01.577Z,41.70
2022-12-23T19:11:12.944Z,41.40
2022-12-23T19:14:15.405Z,43.05
2022-12-23T19:17:18.440Z,39.03
2022-12-23T19:20:22.052Z,40.17
2022-12-23T19:23:26.397Z,41.30
2022-12-23T19:26:28.944Z,40.55
2022-12-23T19:29:32.139Z,40.15
2022-12-23T19:32:34.995Z,43.47
2022-12-23T19:35:42.140Z,42.33
2022-12-23T19:38:45.601Z,41.08
2022-12-23T19:41:48.463Z,38.97
2022-12-23T19:44:50.938Z,41.90
2022-12-23T19:47:53.756Z,40.33
2022-12-23T19:51:15.267Z,40.70
2022-12-23T19:54:19.421Z,40.50
2022-12-23T19:57:23.253Z,40.28
2022-12-23T20:00:30.946Z,34.40
2022-12-23T20:03:33.825Z,36.40
2022-12-23T20:06:39.917Z,35.20
2022-12-23T20:09:42.522Z,32.85
2022-12-23T20:12:44.788Z,37.42
2022-12-23T20:15:47.381Z,39.05
2022-12-23T20:18:49.783Z,35.05
2022-12-23T20:21:52.625Z,36.22
2022-12-23T20:24:55.181Z,36.65
2022-12-23T20:27:58.095Z,35.80
2022-12-23T20:31:07.506Z,36.15
2022-12-23T20:34:15.119Z,39.60
2022-12-23T20:37:17.659Z,38.45
2022-12-23T20:40:20.989Z,35.85
2022-12-23T20:43:23.805Z,38.38
2022-12-23T20:46:28.029Z,35.63
2022-12-23T20:49:31.243Z,38.35
2022-12-23T20:52:34.109Z,34.05
2022-12-23T20:55:36.775Z,37.28
2022-12-23T20:58:56.037Z,37.25
2022-12-23T21:02:03.142Z,38.63
2022-12-23T21:05:06.120Z,33.85
2022-12-23T21:08:08.689Z,38.35
2022-12-23T21:11:12.154Z,35.28
2022-12-23T21:14:15.409Z,36.53
2022-12-23T21:17:18.457Z,34.45
2022-12-23T21:20:20.741Z,32.97
2022-12-23T21:23:23.347Z,35.05
2022-12-23T21:26:28.626Z,32.85
2022-12-23T21:29:31.249Z,34.17
2022-12-23T21:32:33.860Z,35.03
2022-12-23T21:35:36.725Z,37.22
2022-12-23T21:38:41.553Z,36.10
2022-12-23T21:41:44.319Z,37.30
2022-12-23T21:44:47.282Z,36.05
2022-12-23T21:47:49.912Z,38.70
2022-12-23T21:50:52.215Z,38.28
2022-12-23T21:53:57.185Z,34.10
2022-12-23T21:56:59.588Z,36.67
2022-12-23T22:00:02.830Z,37.72
2022-12-23T22:03:06.678Z,35.33
2022-12-23T22:06:12.117Z,34.80
2022-12-23T22:09:19.273Z,38.33
2022-12-23T22:12:21.826Z,38.88
2022-12-23T22:15:24.086Z,38.25
2022-12-23T22:18:26.650Z,38.33
2022-12-23T22:21:31.161Z,37.55
2022-12-23T22:24:33.778Z,41.53
2022-12-23T22:27:36.011Z,39.92
2022-12-23T22:30:38.593Z,38.40
2022-12-23T22:33:41.070Z,40.45
2022-12-23T22:36:43.827Z,41.58
2022-12-23T22:39:46.512Z,38.38
2022-12-23T22:42:49.127Z,38.38
2022-12-23T22:45:58.887Z,38.50
2022-12-23T22:49:01.749Z,42.93
2022-12-23T22:52:04.806Z,40.28
2022-12-23T22:55:07.828Z,42.70
2022-12-23T22:58:10.045Z,44.67
2022-12-23T23:01:26.638Z,46.05
2022-12-23T23:04:29.233Z,44.83
2022-12-23T23:07:31.809Z,47.25
2022-12-23T23:10:34.304Z,40.80
2022-12-23T23:13:36.818Z,41.08
2022-12-23T23:16:39.240Z,40.45
2022-12-23T23:19:41.823Z,39.83
2022-12-23T23:22:44.492Z,42.15
2022-12-23T23:25:47.141Z,41.63
2022-12-23T23:28:49.419Z,38.75
2022-12-23T23:31:51.963Z,41.00
2022-12-23T23:34:54.254Z,38.35
2022-12-23T23:37:56.797Z,37.83
2022-12-23T23:40:59.013Z,38.65
2022-12-23T23:44:01.527Z,38.15
2022-12-23T23:47:03.816Z,36.50
2022-12-23T23:50:07.411Z,38.80
2022-12-23T23:53:11.503Z,37.75
2022-12-23T23:56:16.363Z,35.30
2022-12-23T23:59:20.298Z,37.05
